Time;durP1;ratioP1;P1;durP2;ratioP2;P2;SDS_P1;SDS_P2;PMS_P1;PMS_P2;Temp;Humidity;BMP_temperature;BMP_pressure;BME280_temperature;BME280_humidity;BME280_pressure;Samples;Min_cycle;Max_cycle;Signal;HPM_P1;HPM_P2
2023/10/27 13:23:45;;;;;;;40.72;19.15;;;;;;;11.98;100.00;96512.69;5074827;28;20412;-76
2023/10/27 13:26:29;;;;;;;33.75;17.05;;;;;;;12.28;100.00;96502.41;5071678;28;20067;-77
2023/10/27 13:29:14;;;;;;;31.20;15.77;;;;;;;12.65;100.00;96501.22;5066023;28;20395;-77
2023/10/27 13:31:58;;;;;;;33.47;16.30;;;;;;;12.82;100.00;96506.13;5074404;28;20547;-75
2023/10/27 13:34:42;;;;;;;30.05;15.15;;;;;;;12.98;100.00;96501.56;5073516;28;20039;-74
2023/10/27 13:37:29;;;;;;;31.67;14.63;;;;;;;12.84;100.00;96500.59;5079591;28;20559;-75
2023/10/27 13:40:14;;;;;;;29.50;13.50;;;;;;;12.85;100.00;96502.16;5075561;28;20132;-76
2023/10/27 13:42:58;;;;;;;24.15;11.88;;;;;;;12.86;100.00;96499.25;5076152;28;20529;-78
2023/10/27 13:45:42;;;;;;;27.60;15.43;;;;;;;12.95;100.00;96504.72;5080152;28;20074;-77
2023/10/27 13:48:27;;;;;;;26.15;13.90;;;;;;;13.17;100.00;96500.94;5070282;28;20071;-78
2023/10/27 13:51:14;;;;;;;35.00;18.15;;;;;;;13.10;100.00;96505.69;5067345;28;20044;-77
2023/10/27 13:53:58;;;;;;;23.63;14.25;;;;;;;13.12;100.00;96495.69;5068538;28;20088;-79
2023/10/27 13:56:42;;;;;;;19.23;10.88;;;;;;;13.28;100.00;96486.59;5074007;28;20063;-78
2023/10/27 13:59:28;;;;;;;21.92;11.93;;;;;;;13.55;100.00;96484.59;5071700;28;20048;-78
2023/10/27 14:02:13;;;;;;;22.90;13.07;;;;;;;13.79;100.00;96489.91;5068491;28;20102;-77
2023/10/27 14:04:57;;;;;;;19.85;12.60;;;;;;;13.85;100.00;96491.44;5077627;28;20047;-78
2023/10/27 14:07:41;;;;;;;19.52;9.93;;;;;;;14.11;100.00;96493.81;5072904;28;20055;-78
2023/10/27 14:10:26;;;;;;;18.10;10.23;;;;;;;14.17;100.00;96493.78;5075155;28;20051;-78
2023/10/27 14:13:10;;;;;;;15.80;8.38;;;;;;;14.03;100.00;96483.88;5073698;28;20112;-77
2023/10/27 14:15:54;;;;;;;21.10;8.95;;;;;;;14.11;100.00;96482.47;5078275;28;20465;-76
2023/10/27 14:18:39;;;;;;;20.00;8.05;;;;;;;14.14;100.00;96500.38;5068496;28;20078;-77
2023/10/27 14:21:23;;;;;;;23.43;13.17;;;;;;;14.08;100.00;96490.97;5074605;28;20046;-77
2023/10/27 14:24:09;;;;;;;14.13;8.68;;;;;;;13.93;100.00;96499.78;5076620;28;20489;-77
2023/10/27 14:26:54;;;;;;;16.73;7.43;;;;;;;13.87;100.00;96498.28;5075685;28;20062;-78
2023/10/27 14:29:38;;;;;;;18.95;8.23;;;;;;;13.64;100.00;96496.09;5078333;28;20067;-78
2023/10/27 14:32:22;;;;;;;17.15;8.82;;;;;;;13.56;100.00;96492.22;5075594;28;20059;-85
2023/10/27 14:35:08;;;;;;;24.42;8.43;;;;;;;13.50;100.00;96493.31;5065647;28;20094;-87
2023/10/27 14:37:53;;;;;;;17.13;8.73;;;;;;;13.37;100.00;96483.41;5063813;28;20044;-85
2023/10/27 14:40:38;;;;;;;17.38;7.65;;;;;;;13.31;100.00;96482.66;5064267;28;20062;-86
2023/10/27 14:43:22;;;;;;;17.63;8.80;;;;;;;13.08;100.00;96492.81;5061094;28;20048;-88
2023/10/27 14:46:07;;;;;;;16.95;9.30;;;;;;;13.26;100.00;96496.63;5061364;28;20082;-87
2023/10/27 14:48:52;;;;;;;29.52;13.63;;;;;;;13.22;100.00;96500.88;5063059;28;20060;-85
2023/10/27 14:51:37;;;;;;;22.05;10.02;;;;;;;13.25;100.00;96502.97;5066960;28;20045;-89
2023/10/27 14:54:21;;;;;;;20.58;11.60;;;;;;;12.96;100.00;96501.03;5093814;28;20080;-87
2023/10/27 14:57:06;;;;;;;33.17;19.88;;;;;;;12.75;100.00;96473.25;5063794;28;20711;-88
2023/10/27 14:59:51;;;;;;;38.80;24.30;;;;;;;12.66;100.00;96465.13;5065139;28;20047;-86
2023/10/27 15:02:40;;;;;;;43.10;26.42;;;;;;;12.41;100.00;96433.44;5064479;28;20071;-87
2023/10/27 15:05:24;;;;;;;33.25;18.40;;;;;;;12.59;100.00;96465.47;5063330;28;20071;-90
2023/10/27 15:08:08;;;;;;;25.08;13.15;;;;;;;12.78;100.00;96480.63;5051862;28;20075;-87
2023/10/27 15:10:58;;;;;;;26.13;14.85;;;;;;;12.66;100.00;96476.47;5058393;28;20051;-88
2023/10/27 15:13:42;;;;;;;26.85;15.05;;;;;;;12.66;100.00;96494.88;5057007;28;20048;-88
2023/10/27 15:16:31;;;;;;;26.92;15.70;;;;;;;12.62;100.00;96490.44;5068766;28;20093;-86
2023/10/27 15:19:16;;;;;;;34.63;18.13;;;;;;;12.39;100.00;96480.28;5067325;28;20131;-86
2023/10/27 15:22:00;;;;;;;34.08;19.52;;;;;;;12.42;100.00;96476.31;5059937;28;20059;-85
2023/10/27 15:24:44;;;;;;;21.67;13.52;;;;;;;12.46;100.00;96489.72;5057078;28;20087;-84
2023/10/27 15:27:30;;;;;;;17.92;11.13;;;;;;;12.27;100.00;96490.31;5035164;28;20103;-86
2023/10/27 15:30:14;;;;;;;21.92;10.07;;;;;;;12.36;100.00;96499.19;5064608;28;20097;-81
2023/10/27 15:32:59;;;;;;;23.13;10.95;;;;;;;12.33;100.00;96483.19;5069523;28;20048;-82
2023/10/27 15:35:44;;;;;;;15.68;9.05;;;;;;;12.40;100.00;96488.94;5075733;28;20051;-83
2023/10/27 15:38:28;;;;;;;22.85;9.65;;;;;;;12.28;100.00;96479.53;5075832;28;20056;-82
2023/10/27 15:41:23;;;;;;;18.45;10.30;;;;;;;12.09;100.00;96468.78;5066044;28;20485;-86
2023/10/27 15:44:08;;;;;;;19.10;10.40;;;;;;;12.12;100.00;96484.03;5064040;28;20035;-84
2023/10/27 15:46:52;;;;;;;19.08;9.90;;;;;;;12.08;100.00;96469.84;5063767;28;20051;-83
2023/10/27 15:49:36;;;;;;;22.98;11.30;;;;;;;12.18;100.00;96481.38;5069354;28;20488;-83
2023/10/27 15:52:20;;;;;;;19.45;11.07;;;;;;;12.28;100.00;96491.88;5068245;28;20156;-83
2023/10/27 15:55:07;;;;;;;19.15;11.55;;;;;;;12.14;100.00;96487.19;5068920;28;20043;-86
2023/10/27 15:57:51;;;;;;;22.88;11.45;;;;;;;12.17;100.00;96485.06;5063019;28;20067;-87
2023/10/27 16:00:35;;;;;;;21.45;12.10;;;;;;;12.18;100.00;96494.53;5060179;28;20078;-86
2023/10/27 16:03:20;;;;;;;19.20;11.90;;;;;;;12.04;100.00;96450.41;5062209;28;20047;-84
2023/10/27 16:06:05;;;;;;;23.90;11.40;;;;;;;12.32;100.00;96492.91;5061255;28;20047;-86
2023/10/27 16:08:49;;;;;;;53.63;28.38;;;;;;;11.49;100.00;96498.28;5064455;28;20425;-84
2023/10/27 16:11:33;;;;;;;50.13;29.50;;;;;;;11.15;100.00;96464.66;5057509;28;20048;-85
2023/10/27 16:14:17;;;;;;;34.92;21.10;;;;;;;11.06;100.00;96476.75;5059077;28;20048;-84
2023/10/27 16:17:01;;;;;;;26.38;14.07;;;;;;;11.27;100.00;96465.19;5055132;28;20136;-88
2023/10/27 16:19:44;;;;;;;22.25;12.45;;;;;;;11.52;100.00;96489.88;5072358;28;20119;-88
2023/10/27 16:22:28;;;;;;;28.85;13.75;;;;;;;11.48;100.00;96491.47;5075994;28;20430;-87
2023/10/27 16:25:12;;;;;;;26.35;14.88;;;;;;;11.35;100.00;96476.22;5070932;28;20051;-88
2023/10/27 16:27:56;;;;;;;26.48;14.48;;;;;;;11.32;100.00;96487.25;5061098;28;20035;-86
2023/10/27 16:30:40;;;;;;;23.38;13.77;;;;;;;11.22;100.00;96457.31;5059853;28;20049;-86
2023/10/27 16:33:25;;;;;;;29.50;17.58;;;;;;;11.15;100.00;96488.28;5062351;28;20041;-86
2023/10/27 16:36:09;;;;;;;26.27;16.60;;;;;;;10.90;100.00;96487.22;5064911;28;20040;-85
2023/10/27 16:38:53;;;;;;;29.63;17.05;;;;;;;10.83;100.00;96484.06;5062367;28;20087;-86
2023/10/27 16:41:37;;;;;;;28.02;17.17;;;;;;;10.85;100.00;96479.34;5062731;28;20084;-83
2023/10/27 16:44:24;;;;;;;29.67;17.67;;;;;;;10.67;100.00;96483.19;5059965;28;20088;-83
2023/10/27 16:47:09;;;;;;;45.10;28.75;;;;;;;10.63;100.00;96482.94;5061785;28;20044;-85
2023/10/27 16:49:55;;;;;;;71.90;43.45;;;;;;;10.48;100.00;96475.78;5059354;28;20124;-81
2023/10/27 16:52:39;;;;;;;73.63;42.78;;;;;;;10.57;100.00;96490.00;5059662;28;20147;-83
2023/10/27 16:55:23;;;;;;;64.68;38.20;;;;;;;10.50;100.00;96478.19;5062297;28;20150;-83
2023/10/27 16:58:08;;;;;;;51.67;29.92;;;;;;;10.53;100.00;96482.91;5068204;28;20712;-85
2023/10/27 17:00:58;;;;;;;43.58;23.35;;;;;;;10.58;100.00;96480.28;5053728;28;20047;-81
2023/10/27 17:03:42;;;;;;;37.53;21.60;;;;;;;10.44;100.00;96472.13;5065042;28;20496;-81
2023/10/27 17:06:26;;;;;;;42.13;23.67;;;;;;;10.37;100.00;96474.94;5059544;28;20085;-85
2023/10/27 17:09:11;;;;;;;44.72;25.10;;;;;;;10.37;100.00;96472.31;5063753;28;20043;-80
2023/10/27 17:11:55;;;;;;;44.53;22.88;;;;;;;10.42;100.00;96472.41;5066372;28;20043;-81
2023/10/27 17:14:39;;;;;;;38.40;21.65;;;;;;;10.64;100.00;96483.72;5068189;28;20544;-81
2023/10/27 17:17:23;;;;;;;33.40;19.38;;;;;;;10.72;100.00;96467.50;5063813;28;20035;-81
2023/10/27 17:20:10;;;;;;;53.53;27.08;;;;;;;10.83;100.00;96481.44;5063153;28;20128;-83
2023/10/27 17:22:54;;;;;;;35.75;21.63;;;;;;;10.81;100.00;96488.78;5061340;28;20600;-79
2023/10/27 17:25:38;;;;;;;38.50;20.17;;;;;;;10.74;100.00;96473.28;5059208;28;20151;-80
2023/10/27 17:28:22;;;;;;;40.40;21.00;;;;;;;10.80;100.00;96474.06;5061427;28;20093;-81
2023/10/27 17:31:06;;;;;;;32.97;17.52;;;;;;;10.76;100.00;96475.63;5060150;28;20047;-81
2023/10/27 17:33:57;;;;;;;28.42;17.17;;;;;;;10.71;100.00;96474.56;5056563;28;20051;-80
2023/10/27 17:36:45;;;;;;;33.70;17.25;;;;;;;10.82;100.00;96485.88;5063307;28;20077;-79
2023/10/27 17:39:28;;;;;;;34.42;18.67;;;;;;;10.80;100.00;96476.66;5066098;28;20051;-81
2023/10/27 17:42:13;;;;;;;34.03;17.80;;;;;;;10.74;100.00;96480.34;5066128;28;20035;-81
2023/10/27 17:44:57;;;;;;;31.42;17.90;;;;;;;10.78;100.00;96491.88;5061546;28;20148;-80
2023/10/27 17:47:47;;;;;;;29.38;17.65;;;;;;;10.77;100.00;96485.06;5055199;28;20043;-81
2023/10/27 17:50:37;;;;;;;26.83;17.35;;;;;;;10.77;100.00;96485.88;5061468;28;20442;-81
2023/10/27 17:53:21;;;;;;;32.92;17.77;;;;;;;10.87;100.00;96495.59;5064348;28;20047;-83
2023/10/27 17:56:09;;;;;;;33.38;18.95;;;;;;;10.84;100.00;96483.78;5059786;28;20410;-84
2023/10/27 17:58:53;;;;;;;28.73;17.67;;;;;;;10.84;100.00;96483.00;5052868;28;20406;-81
2023/10/27 18:01:37;;;;;;;35.58;20.67;;;;;;;10.76;100.00;96491.38;5056779;28;20048;-84
2023/10/27 18:04:22;;;;;;;40.22;19.33;;;;;;;10.71;100.00;96495.56;5058001;28;20089;-86
2023/10/27 18:07:06;;;;;;;37.83;20.92;;;;;;;10.65;100.00;96483.47;5060976;28;20105;-84
2023/10/27 18:09:51;;;;;;;34.88;20.02;;;;;;;10.65;100.00;96486.09;5063260;28;20039;-84
2023/10/27 18:12:39;;;;;;;38.08;20.67;;;;;;;10.62;100.00;96489.25;5063010;28;20575;-83
2023/10/27 18:15:23;;;;;;;37.70;19.90;;;;;;;10.53;100.00;96482.91;5063024;28;20508;-84
2023/10/27 18:18:08;;;;;;;34.80;19.73;;;;;;;10.63;100.00;96488.19;5063579;28;20059;-84
2023/10/27 18:20:52;;;;;;;34.78;20.05;;;;;;;10.70;100.00;96486.09;5066725;28;20509;-85
2023/10/27 18:23:40;;;;;;;46.63;22.80;;;;;;;10.71;100.00;96486.91;5060310;28;20106;-84
2023/10/27 18:26:24;;;;;;;42.30;22.30;;;;;;;10.77;100.00;96487.69;5064599;28;20589;-83
2023/10/27 18:29:08;;;;;;;35.25;20.38;;;;;;;10.71;100.00;96485.06;5067841;28;20036;-84
2023/10/27 18:31:52;;;;;;;42.53;22.05;;;;;;;10.81;100.00;96499.28;5060892;28;20040;-84
2023/10/27 18:34:38;;;;;;;38.95;22.83;;;;;;;10.78;100.00;96489.25;5064474;28;20073;-83
2023/10/27 18:37:22;;;;;;;44.33;25.27;;;;;;;10.84;100.00;96499.53;5066806;28;20043;-83
2023/10/27 18:40:07;;;;;;;40.28;25.30;;;;;;;10.84;100.00;96493.50;5064567;28;20086;-84
2023/10/27 18:42:52;;;;;;;47.28;26.42;;;;;;;10.51;100.00;96487.63;5064579;28;20043;-84
2023/10/27 18:45:37;;;;;;;42.20;26.73;;;;;;;10.57;100.00;96502.31;5064042;28;20470;-84
2023/10/27 18:48:21;;;;;;;44.53;25.00;;;;;;;10.45;100.00;96486.03;5065089;28;20406;-86
2023/10/27 18:51:06;;;;;;;49.97;25.00;;;;;;;10.44;100.00;96485.22;5069463;28;20056;-86
2023/10/27 18:53:50;;;;;;;40.72;24.95;;;;;;;10.47;100.00;96489.19;5063085;28;20098;-87
2023/10/27 18:56:34;;;;;;;42.72;24.50;;;;;;;10.83;100.00;96507.66;5062576;28;20056;-85
2023/10/27 18:59:18;;;;;;;41.13;24.42;;;;;;;10.90;100.00;96502.94;5064481;28;20086;-87
2023/10/27 19:02:02;;;;;;;48.65;26.15;;;;;;;10.84;100.00;96499.53;5069336;28;20109;-87
2023/10/27 19:04:46;;;;;;;48.13;26.88;;;;;;;10.92;100.00;96500.09;5067576;28;20457;-87
2023/10/27 19:07:30;;;;;;;48.92;27.33;;;;;;;10.87;100.00;96482.47;5064788;28;20061;-87
2023/10/27 19:10:14;;;;;;;47.67;27.15;;;;;;;10.69;100.00;96481.09;5066983;28;20064;-89
2023/10/27 19:12:58;;;;;;;52.13;29.27;;;;;;;10.56;100.00;96488.44;5062191;28;20047;-87
2023/10/27 19:15:44;;;;;;;57.05;29.20;;;;;;;10.59;100.00;96494.97;5068154;28;20511;-87
2023/10/27 19:18:28;;;;;;;47.22;27.77;;;;;;;10.47;100.00;96486.56;5067512;28;20047;-87
2023/10/27 19:21:14;;;;;;;45.25;27.63;;;;;;;10.50;100.00;96484.19;5064949;28;20075;-87
2023/10/27 19:24:00;;;;;;;51.90;28.30;;;;;;;10.60;100.00;96499.19;5062998;28;20039;-88
2023/10/27 19:26:44;;;;;;;51.38;29.83;;;;;;;10.53;100.00;96478.47;5063578;28;20406;-88
2023/10/27 19:29:28;;;;;;;50.20;28.77;;;;;;;10.56;100.00;96488.44;5065604;28;20051;-86
2023/10/27 19:32:13;;;;;;;54.33;28.80;;;;;;;10.88;100.00;96478.81;5068931;28;20063;-88
2023/10/27 19:34:57;;;;;;;60.58;31.27;;;;;;;10.90;100.00;96489.03;5065119;28;20068;-87
2023/10/27 19:37:41;;;;;;;64.80;35.65;;;;;;;10.81;100.00;96476.44;5062952;28;20040;-87
2023/10/27 19:40:25;;;;;;;66.15;36.25;;;;;;;10.89;100.00;96488.25;5066273;28;20035;-88
2023/10/27 19:43:09;;;;;;;67.75;35.15;;;;;;;10.91;100.00;96482.75;5063337;28;20075;-85
2023/10/27 19:45:53;;;;;;;70.85;34.85;;;;;;;10.82;100.00;96474.59;5070183;28;20097;-87
2023/10/27 19:48:39;;;;;;;74.47;34.25;;;;;;;10.94;100.00;96485.63;5069020;28;20047;-87
2023/10/27 19:51:24;;;;;;;116.75;44.28;;;;;;;10.86;100.00;96480.91;5064856;28;20040;-88
2023/10/27 19:54:08;;;;;;;162.27;52.58;;;;;;;10.81;100.00;96473.03;5066684;28;20083;-87
2023/10/27 19:56:52;;;;;;;97.70;40.40;;;;;;;10.79;100.00;96481.16;5064240;28;20043;-89
2023/10/27 19:59:36;;;;;;;74.57;35.80;;;;;;;10.83;100.00;96489.31;5063569;28;20055;-88
2023/10/27 20:02:20;;;;;;;79.05;34.08;;;;;;;10.74;100.00;96469.84;5063899;28;20090;-87
2023/10/27 20:05:05;;;;;;;69.65;33.05;;;;;;;10.75;100.00;96480.09;5068748;28;20086;-86
2023/10/27 20:07:52;;;;;;;71.72;32.35;;;;;;;10.83;100.00;96502.41;5063337;28;20063;-87
2023/10/27 20:10:46;;;;;;;102.85;32.50;;;;;;;10.57;100.00;96489.22;5065763;28;20051;-86
2023/10/27 20:13:30;;;;;;;61.83;29.83;;;;;;;10.81;100.00;96502.66;5067379;28;20039;-87
2023/10/27 20:16:17;;;;;;;60.50;29.55;;;;;;;10.71;100.00;96487.69;5066084;28;20044;-86
2023/10/27 20:19:01;;;;;;;63.55;29.80;;;;;;;10.82;100.00;96500.84;5063496;28;20072;-87
2023/10/27 20:21:45;;;;;;;74.35;31.92;;;;;;;10.77;100.00;96498.19;5060889;28;20517;-85
2023/10/27 20:24:30;;;;;;;75.60;30.67;;;;;;;10.68;100.00;96492.66;5066098;28;20165;-88
2023/10/27 20:27:14;;;;;;;74.55;30.63;;;;;;;10.75;100.00;96500.28;5063600;28;20082;-89
2023/10/27 20:29:59;;;;;;;68.50;30.35;;;;;;;10.81;100.00;96510.53;5066551;28;20075;-87
2023/10/27 20:32:43;;;;;;;88.90;30.70;;;;;;;10.76;100.00;96514.97;5066218;28;20075;-87
2023/10/27 20:35:27;;;;;;;72.28;30.77;;;;;;;10.73;100.00;96520.75;5068727;28;20436;-88
2023/10/27 20:38:12;;;;;;;64.05;31.08;;;;;;;10.73;100.00;96523.38;5066271;28;20515;-88
2023/10/27 20:40:56;;;;;;;75.07;32.10;;;;;;;10.72;100.00;96519.97;5065325;28;20109;-87
2023/10/27 20:43:40;;;;;;;66.90;31.25;;;;;;;10.71;100.00;96511.28;5062506;28;20044;-87
2023/10/27 20:46:24;;;;;;;65.60;31.42;;;;;;;10.74;100.00;96503.94;5062845;28;20110;-87
2023/10/27 20:49:08;;;;;;;65.07;31.30;;;;;;;10.76;100.00;96512.34;5061196;28;20048;-87
2023/10/27 20:51:54;;;;;;;68.97;31.98;;;;;;;10.74;100.00;96522.31;5065437;28;20390;-87
2023/10/27 20:54:38;;;;;;;65.43;30.25;;;;;;;10.76;100.00;96512.34;5061265;28;20051;-88
2023/10/27 20:57:22;;;;;;;72.18;34.58;;;;;;;10.61;100.00;96484.25;5060578;28;20047;-88
2023/10/27 21:00:11;;;;;;;64.97;31.42;;;;;;;10.83;100.00;96516.31;5065505;28;20174;-87
2023/10/27 21:02:56;;;;;;;68.00;31.30;;;;;;;10.77;100.00;96511.31;5060058;28;20077;-87
2023/10/27 21:05:41;;;;;;;64.35;32.00;;;;;;;10.76;100.00;96507.09;5062267;28;20093;-87
2023/10/27 21:08:25;;;;;;;64.80;32.78;;;;;;;10.82;100.00;96506.88;5067574;28;20036;-86
2023/10/27 21:11:09;;;;;;;70.43;33.63;;;;;;;10.82;100.00;96517.38;5067065;28;20114;-87
2023/10/27 21:13:53;;;;;;;66.00;33.08;;;;;;;10.81;100.00;96505.28;5055955;28;20060;-87
2023/10/27 21:16:36;;;;;;;64.43;32.20;;;;;;;10.86;100.00;96510.53;5066146;28;20119;-88
2023/10/27 21:19:21;;;;;;;65.45;31.45;;;;;;;10.83;100.00;96497.16;5061549;28;20122;-88
2023/10/27 21:22:06;;;;;;;66.85;30.35;;;;;;;10.86;100.00;96507.91;5059132;28;20449;-85
2023/10/27 21:24:50;;;;;;;62.58;30.20;;;;;;;10.79;100.00;96506.59;5059628;28;20521;-88
2023/10/27 21:27:34;;;;;;;59.75;32.53;;;;;;;10.90;100.00;96510.03;5060404;28;20051;-88
2023/10/27 21:30:18;;;;;;;59.33;29.63;;;;;;;10.79;100.00;96491.66;5063731;28;20074;-86
2023/10/27 21:33:04;;;;;;;54.78;27.50;;;;;;;10.87;100.00;96503.47;5066035;28;20079;-82
2023/10/27 21:35:48;;;;;;;52.05;26.38;;;;;;;10.85;100.00;96505.56;5068187;28;20043;-82
2023/10/27 21:38:32;;;;;;;55.30;27.40;;;;;;;10.88;100.00;96507.69;5057807;28;20044;-83
2023/10/27 21:41:16;;;;;;;53.25;27.98;;;;;;;10.85;100.00;96508.97;5063395;28;20059;-83
2023/10/27 21:44:00;;;;;;;63.45;29.40;;;;;;;10.86;100.00;96507.16;5068576;28;20039;-83
2023/10/27 21:46:44;;;;;;;58.20;28.88;;;;;;;10.82;100.00;96495.59;5068744;28;20098;-83
2023/10/27 21:49:29;;;;;;;63.92;29.77;;;;;;;10.81;100.00;96504.53;5063003;28;20036;-83
2023/10/27 21:52:13;;;;;;;57.35;29.25;;;;;;;10.80;100.00;96502.91;5066015;28;20040;-85
2023/10/27 21:54:57;;;;;;;56.08;29.83;;;;;;;10.79;100.00;96511.84;5064903;28;20047;-84
2023/10/27 21:57:41;;;;;;;62.30;29.33;;;;;;;10.70;100.00;96493.97;5060217;28;20513;-84
2023/10/27 22:00:36;;;;;;;57.13;28.40;;;;;;;10.69;100.00;96494.22;5070476;28;20182;-85
2023/10/27 22:03:25;;;;;;;65.75;29.98;;;;;;;10.74;100.00;96504.75;5067848;28;20023;-83
2023/10/27 22:06:10;;;;;;;70.70;31.42;;;;;;;10.67;100.00;96499.75;5067335;28;20559;-84
2023/10/27 22:08:54;;;;;;;66.03;32.17;;;;;;;10.77;100.00;96503.44;5072791;28;20080;-84
2023/10/27 22:11:39;;;;;;;65.88;32.00;;;;;;;10.75;100.00;96497.66;5073346;28;20472;-86
2023/10/27 22:14:24;;;;;;;67.95;32.78;;;;;;;10.81;100.00;96512.38;5075834;28;20124;-86
2023/10/27 22:17:08;;;;;;;67.55;31.05;;;;;;;10.75;100.00;96501.09;5076797;28;20109;-85
2023/10/27 22:19:54;;;;;;;72.28;32.20;;;;;;;10.76;100.00;96491.38;5076963;28;20055;-84
2023/10/27 22:22:38;;;;;;;70.18;33.05;;;;;;;10.82;100.00;96506.09;5075005;28;20071;-85
2023/10/27 22:25:24;;;;;;;75.28;33.72;;;;;;;10.75;100.00;96501.09;5074796;28;20441;-85
2023/10/27 22:28:11;;;;;;;70.25;32.17;;;;;;;10.77;100.00;96509.47;5066272;28;20048;-83
2023/10/27 22:30:56;;;;;;;75.60;32.75;;;;;;;10.78;100.00;96499.75;5075180;28;20101;-84
2023/10/27 22:33:40;;;;;;;74.68;31.13;;;;;;;10.85;100.00;96503.72;5074291;28;20048;-84
2023/10/27 22:36:24;;;;;;;61.75;29.08;;;;;;;10.83;100.00;96499.78;5067936;28;20056;-84
2023/10/27 22:39:08;;;;;;;61.45;30.30;;;;;;;10.90;100.00;96497.69;5061999;28;20128;-83
2023/10/27 22:41:52;;;;;;;66.50;30.92;;;;;;;10.91;100.00;96494.03;5069193;28;20039;-83
2023/10/27 22:44:37;;;;;;;63.08;30.00;;;;;;;11.06;100.00;96495.13;5067582;28;20071;-84
2023/10/27 22:47:23;;;;;;;65.55;31.23;;;;;;;11.09;100.00;96486.72;5061488;28;20035;-84
2023/10/27 22:50:09;;;;;;;66.47;29.90;;;;;;;11.01;100.00;96477.50;5063986;28;20040;-83
2023/10/27 22:52:53;;;;;;;66.25;30.88;;;;;;;10.92;100.00;96461.50;5074820;28;20101;-83
2023/10/27 22:55:44;;;;;;;61.85;30.38;;;;;;;11.07;100.00;96491.44;5071580;28;20090;-84
2023/10/27 22:58:31;;;;;;;64.70;29.48;;;;;;;11.06;100.00;96479.38;5063886;28;20031;-85
2023/10/27 23:01:15;;;;;;;51.72;26.65;;;;;;;11.08;100.00;96480.66;5065453;28;20059;-83
2023/10/27 23:03:59;;;;;;;62.78;27.90;;;;;;;11.01;100.00;96485.38;5064079;28;20075;-84
2023/10/27 23:06:43;;;;;;;64.50;28.85;;;;;;;11.04;100.00;96490.13;5064563;28;20047;-83
2023/10/27 23:09:27;;;;;;;;;;;;;;;11.07;100.00;96488.81;5063107;28;20075;-83
2023/10/27 23:12:11;;;;;;;67.78;31.02;;;;;;;10.94;100.00;96484.84;5065087;28;20005;-85
2023/10/27 23:14:55;;;;;;;59.30;27.45;;;;;;;10.93;100.00;96488.53;5066568;28;20036;-87
2023/10/27 23:17:39;;;;;;;61.60;27.73;;;;;;;10.92;100.00;96485.09;5066982;28;20086;-84
2023/10/27 23:20:27;;;;;;;55.72;26.23;;;;;;;10.94;100.00;96482.22;5062284;28;20504;-83
2023/10/27 23:23:11;;;;;;;64.43;29.50;;;;;;;10.92;100.00;96487.72;5058224;28;20469;-85
2023/10/27 23:25:56;;;;;;;66.40;28.80;;;;;;;10.81;100.00;96479.06;5061756;28;20127;-84
2023/10/27 23:28:40;;;;;;;53.75;26.42;;;;;;;10.87;100.00;96474.59;5062381;28;20514;-83
2023/10/27 23:31:24;;;;;;;56.33;28.23;;;;;;;10.89;100.00;96490.88;5055682;28;20126;-82
2023/10/27 23:34:08;;;;;;;54.45;28.85;;;;;;;10.84;100.00;96488.25;5063575;28;20059;-83
2023/10/27 23:36:53;;;;;;;58.05;25.90;;;;;;;10.68;100.00;96469.84;5061588;28;20131;-83
2023/10/27 23:39:37;;;;;;;47.22;24.35;;;;;;;10.80;100.00;96485.34;5063955;28;20058;-83
2023/10/27 23:42:23;;;;;;;39.33;21.83;;;;;;;10.69;100.00;96474.03;5067475;28;20031;-85
2023/10/27 23:45:08;;;;;;;48.28;23.25;;;;;;;10.65;100.00;96474.81;5066079;28;20047;-83
2023/10/27 23:47:54;;;;;;;50.10;23.42;;;;;;;10.67;100.00;96481.38;5069411;28;20182;-83
2023/10/27 23:50:38;;;;;;;51.35;24.15;;;;;;;10.60;100.00;96480.81;5066637;28;20170;-81
2023/10/27 23:53:23;;;;;;;46.70;23.58;;;;;;;10.54;100.00;96479.22;5065733;28;20043;-83
2023/10/27 23:56:08;;;;;;;48.75;25.67;;;;;;;10.57;100.00;96486.59;5066309;28;20050;-83
2023/10/27 23:58:51;;;;;;;50.78;23.52;;;;;;;10.58;100.00;96490.78;5061719;28;20509;-83
